sensor_id;sensor_type;location;lat;lon;timestamp;pressure;altitude;pressure_sealevel;temperature;humidity
68137;BME280;54939;50.826;9.030;2023-10-19T00:00:49;96925.97;;;11.76;59.43
68137;BME280;54939;50.826;9.030;2023-10-19T00:01:20;96921.25;;;11.78;59.24
68137;BME280;54939;50.826;9.030;2023-10-19T00:01:53;96922.06;;;11.79;58.97
68137;BME280;54939;50.826;9.030;2023-10-19T00:02:24;96924.75;;;11.79;59.26
68137;BME280;54939;50.826;9.030;2023-10-19T00:02:54;96923.09;;;11.78;59.23
68137;BME280;54939;50.826;9.030;2023-10-19T00:03:25;96920.22;;;11.79;59.29
68137;BME280;54939;50.826;9.030;2023-10-19T00:03:55;96917.56;;;11.79;59.35
68137;BME280;54939;50.826;9.030;2023-10-19T00:04:26;96910.56;;;11.78;59.36
68137;BME280;54939;50.826;9.030;2023-10-19T00:04:56;96919.41;;;11.79;58.98
68137;BME280;54939;50.826;9.030;2023-10-19T00:05:26;96915.91;;;11.78;59.08
68137;BME280;54939;50.826;9.030;2023-10-19T00:05:56;96914.06;;;11.79;59.15
68137;BME280;54939;50.826;9.030;2023-10-19T00:06:27;96915.09;;;11.78;58.97
68137;BME280;54939;50.826;9.030;2023-10-19T00:06:57;96918.38;;;11.80;59.37
68137;BME280;54939;50.826;9.030;2023-10-19T00:07:27;96921.06;;;11.80;59.31
68137;BME280;54939;50.826;9.030;2023-10-19T00:07:58;96921.06;;;11.80;59.03
68137;BME280;54939;50.826;9.030;2023-10-19T00:08:29;96912.22;;;11.79;59.01
68137;BME280;54939;50.826;9.030;2023-10-19T00:09:10;96913.03;;;11.80;59.10
68137;BME280;54939;50.826;9.030;2023-10-19T00:09:41;96916.53;;;11.80;59.16
68137;BME280;54939;50.826;9.030;2023-10-19T00:10:15;96920.03;;;11.81;59.29
68137;BME280;54939;50.826;9.030;2023-10-19T00:10:47;96917.56;;;11.79;59.06
68137;BME280;54939;50.826;9.030;2023-10-19T00:11:18;96921.06;;;11.80;59.13
68137;BME280;54939;50.826;9.030;2023-10-19T00:11:52;96903.16;;;11.80;59.03
68137;BME280;54939;50.826;9.030;2023-10-19T00:12:22;96909.53;;;11.79;59.16
68137;BME280;54939;50.826;9.030;2023-10-19T00:12:52;96917.56;;;11.79;59.20
68137;BME280;54939;50.826;9.030;2023-10-19T00:13:30;96909.53;;;11.79;59.11
68137;BME280;54939;50.826;9.030;2023-10-19T00:14:00;96909.53;;;11.79;59.08
68137;BME280;54939;50.826;9.030;2023-10-19T00:14:32;96904.00;;;11.81;59.18
68137;BME280;54939;50.826;9.030;2023-10-19T00:15:03;96902.34;;;11.80;59.18
68137;BME280;54939;50.826;9.030;2023-10-19T00:15:35;96898.03;;;11.79;59.35
68137;BME280;54939;50.826;9.030;2023-10-19T00:16:09;96899.03;;;11.78;59.21
68137;BME280;54939;50.826;9.030;2023-10-19T00:16:52;96898.41;;;11.76;59.46
68137;BME280;54939;50.826;9.030;2023-10-19T00:17:35;96897.38;;;11.77;58.93
68137;BME280;54939;50.826;9.030;2023-10-19T00:18:08;96899.88;;;11.78;59.11
68137;BME280;54939;50.826;9.030;2023-10-19T00:18:47;96894.53;;;11.78;59.33
68137;BME280;54939;50.826;9.030;2023-10-19T00:19:18;96895.34;;;11.79;59.29
68137;BME280;54939;50.826;9.030;2023-10-19T00:19:49;96893.69;;;11.78;59.21
68137;BME280;54939;50.826;9.030;2023-10-19T00:20:38;96893.69;;;11.78;59.06
68137;BME280;54939;50.826;9.030;2023-10-19T00:21:31;96895.34;;;11.79;59.53
68137;BME280;54939;50.826;9.030;2023-10-19T00:22:18;96891.66;;;11.80;59.05
68137;BME280;54939;50.826;9.030;2023-10-19T00:22:51;96896.16;;;11.79;59.13
68137;BME280;54939;50.826;9.030;2023-10-19T00:23:23;96889.19;;;11.78;58.88
68137;BME280;54939;50.826;9.030;2023-10-19T00:24:00;96883.81;;;11.78;59.19
68137;BME280;54939;50.826;9.030;2023-10-19T00:24:35;96889.19;;;11.78;59.03
68137;BME280;54939;50.826;9.030;2023-10-19T00:25:05;96887.31;;;11.79;59.42
68137;BME280;54939;50.826;9.030;2023-10-19T00:25:38;96884.66;;;11.79;59.34
68137;BME280;54939;50.826;9.030;2023-10-19T00:26:11;96886.31;;;11.80;59.04
68137;BME280;54939;50.826;9.030;2023-10-19T00:26:47;96885.28;;;11.81;59.00
68137;BME280;54939;50.826;9.030;2023-10-19T00:27:18;96885.47;;;11.79;59.34
68137;BME280;54939;50.826;9.030;2023-10-19T00:27:49;96885.47;;;11.79;59.07
68137;BME280;54939;50.826;9.030;2023-10-19T00:28:20;96880.13;;;11.79;58.96
68137;BME280;54939;50.826;9.030;2023-10-19T00:28:52;96884.44;;;11.80;59.31
68137;BME280;54939;50.826;9.030;2023-10-19T00:29:29;96880.97;;;11.80;59.28
68137;BME280;54939;50.826;9.030;2023-10-19T00:30:10;96885.28;;;11.81;59.04
68137;BME280;54939;50.826;9.030;2023-10-19T00:30:40;96886.09;;;11.81;59.59
68137;BME280;54939;50.826;9.030;2023-10-19T00:31:12;96882.59;;;11.81;59.00
68137;BME280;54939;50.826;9.030;2023-10-19T00:31:43;96885.28;;;11.81;59.16
68137;BME280;54939;50.826;9.030;2023-10-19T00:32:15;96881.78;;;11.80;59.26
68137;BME280;54939;50.826;9.030;2023-10-19T00:32:45;96883.63;;;11.80;59.40
68137;BME280;54939;50.826;9.030;2023-10-19T00:33:16;96877.47;;;11.79;59.67
68137;BME280;54939;50.826;9.030;2023-10-19T00:33:48;96884.66;;;11.79;59.31
68137;BME280;54939;50.826;9.030;2023-10-19T00:34:22;96880.97;;;11.80;59.27
68137;BME280;54939;50.826;9.030;2023-10-19T00:34:52;96880.97;;;11.80;59.33
68137;BME280;54939;50.826;9.030;2023-10-19T00:35:23;96880.97;;;11.80;59.14
68137;BME280;54939;50.826;9.030;2023-10-19T00:35:58;96879.94;;;11.81;59.17
68137;BME280;54939;50.826;9.030;2023-10-19T00:36:38;96873.75;;;11.80;59.27
68137;BME280;54939;50.826;9.030;2023-10-19T00:37:09;96882.59;;;11.81;59.18
68137;BME280;54939;50.826;9.030;2023-10-19T00:37:40;96877.25;;;11.81;59.43
68137;BME280;54939;50.826;9.030;2023-10-19T00:38:13;96880.97;;;11.80;59.28
68137;BME280;54939;50.826;9.030;2023-10-19T00:39:02;96872.94;;;11.80;59.34
68137;BME280;54939;50.826;9.030;2023-10-19T00:39:43;96872.94;;;11.80;59.01
68137;BME280;54939;50.826;9.030;2023-10-19T00:40:17;96876.44;;;11.80;59.13
68137;BME280;54939;50.826;9.030;2023-10-19T00:41:04;96871.28;;;11.79;59.00
68137;BME280;54939;50.826;9.030;2023-10-19T00:41:40;96875.59;;;11.80;59.23
68137;BME280;54939;50.826;9.030;2023-10-19T00:42:10;96879.31;;;11.79;58.86
68137;BME280;54939;50.826;9.030;2023-10-19T00:42:41;96878.28;;;11.80;59.14
68137;BME280;54939;50.826;9.030;2023-10-19T00:43:25;96882.81;;;11.79;59.12
68137;BME280;54939;50.826;9.030;2023-10-19T00:43:56;96872.94;;;11.80;59.26
68137;BME280;54939;50.826;9.030;2023-10-19T00:44:40;96877.47;;;11.79;59.19
68137;BME280;54939;50.826;9.030;2023-10-19T00:45:19;96881.16;;;11.78;59.40
68137;BME280;54939;50.826;9.030;2023-10-19T00:45:56;96883.63;;;11.80;59.19
68137;BME280;54939;50.826;9.030;2023-10-19T00:46:26;96875.59;;;11.80;59.22
68137;BME280;54939;50.826;9.030;2023-10-19T00:47:02;96877.25;;;11.81;59.24
68137;BME280;54939;50.826;9.030;2023-10-19T00:47:42;96876.44;;;11.80;59.29
68137;BME280;54939;50.826;9.030;2023-10-19T00:48:12;96875.41;;;11.81;58.98
68137;BME280;54939;50.826;9.030;2023-10-19T00:48:44;96878.09;;;11.81;59.29
68137;BME280;54939;50.826;9.030;2023-10-19T00:49:15;96865.75;;;11.80;59.23
68137;BME280;54939;50.826;9.030;2023-10-19T00:49:47;96871.09;;;11.80;59.23
68137;BME280;54939;50.826;9.030;2023-10-19T00:50:17;96862.03;;;11.81;59.02
68137;BME280;54939;50.826;9.030;2023-10-19T00:50:52;96868.41;;;11.80;59.00
68137;BME280;54939;50.826;9.030;2023-10-19T00:51:33;96870.06;;;11.81;59.44
68137;BME280;54939;50.826;9.030;2023-10-19T00:52:04;96864.72;;;11.81;59.42
68137;BME280;54939;50.826;9.030;2023-10-19T00:52:42;96875.41;;;11.81;59.02
68137;BME280;54939;50.826;9.030;2023-10-19T00:53:22;96879.94;;;11.81;59.33
68137;BME280;54939;50.826;9.030;2023-10-19T00:53:56;96876.44;;;11.80;58.97
68137;BME280;54939;50.826;9.030;2023-10-19T00:54:34;96884.44;;;11.80;59.37
68137;BME280;54939;50.826;9.030;2023-10-19T00:55:06;96882.59;;;11.81;59.32
68137;BME280;54939;50.826;9.030;2023-10-19T00:55:38;96882.59;;;11.81;59.10
68137;BME280;54939;50.826;9.030;2023-10-19T00:56:08;96878.09;;;11.81;59.27
68137;BME280;54939;50.826;9.030;2023-10-19T00:56:40;96880.97;;;11.80;59.12
68137;BME280;54939;50.826;9.030;2023-10-19T00:57:16;96882.38;;;11.82;58.97
68137;BME280;54939;50.826;9.030;2023-10-19T00:57:50;96881.59;;;11.82;59.05
68137;BME280;54939;50.826;9.030;2023-10-19T00:58:21;96880.75;;;11.81;59.06
68137;BME280;54939;50.826;9.030;2023-10-19T00:58:59;96880.75;;;11.81;58.97
68137;BME280;54939;50.826;9.030;2023-10-19T00:59:44;96877.03;;;11.82;59.25
68137;BME280;54939;50.826;9.030;2023-10-19T01:00:18;96871.91;;;11.81;59.13
68137;BME280;54939;50.826;9.030;2023-10-19T01:00:59;96878.09;;;11.81;59.18
68137;BME280;54939;50.826;9.030;2023-10-19T01:01:29;96875.41;;;11.81;59.12
68137;BME280;54939;50.826;9.030;2023-10-19T01:02:01;96876.25;;;11.82;59.02
68137;BME280;54939;50.826;9.030;2023-10-19T01:02:46;96871.91;;;11.81;59.29
68137;BME280;54939;50.826;9.030;2023-10-19T01:03:16;96870.06;;;11.81;59.17
68137;BME280;54939;50.826;9.030;2023-10-19T01:03:47;96873.75;;;11.80;59.06
68137;BME280;54939;50.826;9.030;2023-10-19T01:04:22;96878.28;;;11.80;59.10
68137;BME280;54939;50.826;9.030;2023-10-19T01:04:53;96874.59;;;11.81;59.08
68137;BME280;54939;50.826;9.030;2023-10-19T01:05:26;96871.09;;;11.80;59.10
68137;BME280;54939;50.826;9.030;2023-10-19T01:06:03;96875.41;;;11.81;58.93
68137;BME280;54939;50.826;9.030;2023-10-19T01:06:40;96867.41;;;11.81;59.06
68137;BME280;54939;50.826;9.030;2023-10-19T01:07:13;96874.59;;;11.81;59.09
68137;BME280;54939;50.826;9.030;2023-10-19T01:07:52;96866.56;;;11.81;59.29
68137;BME280;54939;50.826;9.030;2023-10-19T01:08:32;96867.41;;;11.81;59.14
68137;BME280;54939;50.826;9.030;2023-10-19T01:09:11;96863.06;;;11.80;58.82
68137;BME280;54939;50.826;9.030;2023-10-19T01:09:45;96873.97;;;11.79;58.96
68137;BME280;54939;50.826;9.030;2023-10-19T01:10:16;96869.44;;;11.79;59.49
68137;BME280;54939;50.826;9.030;2023-10-19T01:10:51;96866.78;;;11.79;59.29
68137;BME280;54939;50.826;9.030;2023-10-19T01:11:22;96868.63;;;11.79;59.54
68137;BME280;54939;50.826;9.030;2023-10-19T01:11:58;96869.44;;;11.79;59.01
68137;BME280;54939;50.826;9.030;2023-10-19T01:12:32;96876.44;;;11.80;59.33
68137;BME280;54939;50.826;9.030;2023-10-19T01:13:02;96867.59;;;11.80;59.18
68137;BME280;54939;50.826;9.030;2023-10-19T01:13:35;96866.56;;;11.81;59.19
68137;BME280;54939;50.826;9.030;2023-10-19T01:14:21;96866.56;;;11.81;59.15
68137;BME280;54939;50.826;9.030;2023-10-19T01:15:37;96876.25;;;11.82;59.33
68137;BME280;54939;50.826;9.030;2023-10-19T01:16:11;96861.22;;;11.81;59.21
68137;BME280;54939;50.826;9.030;2023-10-19T01:16:45;96866.56;;;11.81;59.28
68137;BME280;54939;50.826;9.030;2023-10-19T01:17:16;96867.59;;;11.80;58.95
68137;BME280;54939;50.826;9.030;2023-10-19T01:17:48;96863.91;;;11.81;59.12
68137;BME280;54939;50.826;9.030;2023-10-19T01:18:22;96868.41;;;11.80;59.24
68137;BME280;54939;50.826;9.030;2023-10-19T01:18:59;96862.25;;;11.80;59.01
68137;BME280;54939;50.826;9.030;2023-10-19T01:19:29;96861.22;;;11.81;58.91
68137;BME280;54939;50.826;9.030;2023-10-19T01:19:59;96860.41;;;11.80;58.95
68137;BME280;54939;50.826;9.030;2023-10-19T01:20:30;96863.06;;;11.80;59.02
68137;BME280;54939;50.826;9.030;2023-10-19T01:21:01;96861.22;;;11.81;59.02
68137;BME280;54939;50.826;9.030;2023-10-19T01:21:36;96865.75;;;11.80;59.38
68137;BME280;54939;50.826;9.030;2023-10-19T01:22:07;96870.25;;;11.80;59.14
68137;BME280;54939;50.826;9.030;2023-10-19T01:22:41;96862.25;;;11.80;59.53
68137;BME280;54939;50.826;9.030;2023-10-19T01:23:12;96870.47;;;11.78;59.13
68137;BME280;54939;50.826;9.030;2023-10-19T01:23:50;96862.44;;;11.78;59.19
68137;BME280;54939;50.826;9.030;2023-10-19T01:24:20;96860.59;;;11.79;59.22
68137;BME280;54939;50.826;9.030;2023-10-19T01:25:09;96860.41;;;11.80;59.53
68137;BME280;54939;50.826;9.030;2023-10-19T01:25:50;96860.59;;;11.79;59.12
68137;BME280;54939;50.826;9.030;2023-10-19T01:26:26;96855.88;;;11.81;59.06
68137;BME280;54939;50.826;9.030;2023-10-19T01:26:57;96861.00;;;11.82;59.25
68137;BME280;54939;50.826;9.030;2023-10-19T01:27:29;96856.69;;;11.81;59.12
68137;BME280;54939;50.826;9.030;2023-10-19T01:28:02;96854.03;;;11.81;59.42
68137;BME280;54939;50.826;9.030;2023-10-19T01:28:37;96858.53;;;11.81;59.20
68137;BME280;54939;50.826;9.030;2023-10-19T01:29:11;96853.19;;;11.81;59.42
68137;BME280;54939;50.826;9.030;2023-10-19T01:29:47;96858.53;;;11.81;59.22
68137;BME280;54939;50.826;9.030;2023-10-19T01:30:22;96854.03;;;11.81;59.11
68137;BME280;54939;50.826;9.030;2023-10-19T01:30:52;96851.34;;;11.81;59.01
68137;BME280;54939;50.826;9.030;2023-10-19T01:31:22;96848.69;;;11.81;58.96
68137;BME280;54939;50.826;9.030;2023-10-19T01:31:52;96849.50;;;11.82;58.90
68137;BME280;54939;50.826;9.030;2023-10-19T01:32:36;96846.00;;;11.81;59.39
68137;BME280;54939;50.826;9.030;2023-10-19T01:33:07;96849.50;;;11.82;59.34
68137;BME280;54939;50.826;9.030;2023-10-19T01:33:43;96857.53;;;11.82;59.10
68137;BME280;54939;50.826;9.030;2023-10-19T01:34:14;96854.84;;;11.82;59.04
68137;BME280;54939;50.826;9.030;2023-10-19T01:34:44;96852.19;;;11.82;59.08
68137;BME280;54939;50.826;9.030;2023-10-19T01:35:14;96848.69;;;11.81;59.21
68137;BME280;54939;50.826;9.030;2023-10-19T01:35:45;96846.84;;;11.82;59.02
68137;BME280;54939;50.826;9.030;2023-10-19T01:36:34;96845.19;;;11.81;58.86
68137;BME280;54939;50.826;9.030;2023-10-19T01:37:12;96849.69;;;11.80;59.03
68137;BME280;54939;50.826;9.030;2023-10-19T01:37:42;96843.34;;;11.81;59.24
68137;BME280;54939;50.826;9.030;2023-10-19T01:38:12;96853.19;;;11.81;59.04
68137;BME280;54939;50.826;9.030;2023-10-19T01:38:42;96851.34;;;11.81;59.13
68137;BME280;54939;50.826;9.030;2023-10-19T01:39:12;96853.19;;;11.81;59.07
68137;BME280;54939;50.826;9.030;2023-10-19T01:39:43;96850.53;;;11.81;59.19
68137;BME280;54939;50.826;9.030;2023-10-19T01:40:15;96852.38;;;11.80;59.06
68137;BME280;54939;50.826;9.030;2023-10-19T01:40:50;96850.72;;;11.79;59.30
68137;BME280;54939;50.826;9.030;2023-10-19T01:41:22;96846.22;;;11.80;59.42
68137;BME280;54939;50.826;9.030;2023-10-19T01:41:52;96850.53;;;11.81;59.15
68137;BME280;54939;50.826;9.030;2023-10-19T01:42:22;96839.00;;;11.80;59.00
68137;BME280;54939;50.826;9.030;2023-10-19T01:42:52;96844.34;;;11.80;58.99
68137;BME280;54939;50.826;9.030;2023-10-19T01:43:22;96844.34;;;11.80;59.12
68137;BME280;54939;50.826;9.030;2023-10-19T01:43:55;96840.66;;;11.81;59.07
68137;BME280;54939;50.826;9.030;2023-10-19T01:44:32;96846.00;;;11.81;59.24
68137;BME280;54939;50.826;9.030;2023-10-19T01:45:06;96846.00;;;11.81;59.41
68137;BME280;54939;50.826;9.030;2023-10-19T01:45:36;96840.66;;;11.81;59.18
68137;BME280;54939;50.826;9.030;2023-10-19T01:46:07;96845.19;;;11.81;59.02
68137;BME280;54939;50.826;9.030;2023-10-19T01:46:43;96831.00;;;11.80;59.17
68137;BME280;54939;50.826;9.030;2023-10-19T01:47:13;96841.69;;;11.80;59.05
68137;BME280;54939;50.826;9.030;2023-10-19T01:47:46;96839.84;;;11.81;59.05
68137;BME280;54939;50.826;9.030;2023-10-19T01:48:16;96840.66;;;11.81;59.34
68137;BME280;54939;50.826;9.030;2023-10-19T01:48:47;96839.00;;;11.80;59.02
68137;BME280;54939;50.826;9.030;2023-10-19T01:49:18;96843.34;;;11.81;59.13
68137;BME280;54939;50.826;9.030;2023-10-19T01:49:58;96839.00;;;11.80;58.91
68137;BME280;54939;50.826;9.030;2023-10-19T01:50:28;96834.50;;;11.81;59.13
68137;BME280;54939;50.826;9.030;2023-10-19T01:51:02;96839.00;;;11.80;59.05
68137;BME280;54939;50.826;9.030;2023-10-19T01:51:34;96835.72;;;11.78;59.52
68137;BME280;54939;50.826;9.030;2023-10-19T01:52:08;96837.38;;;11.79;59.02
68137;BME280;54939;50.826;9.030;2023-10-19T01:52:40;96838.19;;;11.80;59.42
68137;BME280;54939;50.826;9.030;2023-10-19T01:53:10;96843.53;;;11.80;59.32
68137;BME280;54939;50.826;9.030;2023-10-19T01:53:45;96837.16;;;11.81;59.19
68137;BME280;54939;50.826;9.030;2023-10-19T01:54:15;96839.00;;;11.80;59.23
68137;BME280;54939;50.826;9.030;2023-10-19T01:54:46;96839.00;;;11.80;59.17
68137;BME280;54939;50.826;9.030;2023-10-19T01:55:16;96845.19;;;11.81;59.44
68137;BME280;54939;50.826;9.030;2023-10-19T01:55:50;96839.00;;;11.80;59.37
68137;BME280;54939;50.826;9.030;2023-10-19T01:56:27;96841.69;;;11.80;59.16
68137;BME280;54939;50.826;9.030;2023-10-19T01:56:58;96836.13;;;11.82;59.06
68137;BME280;54939;50.826;9.030;2023-10-19T01:57:28;96840.66;;;11.81;59.15
68137;BME280;54939;50.826;9.030;2023-10-19T01:57:58;96842.50;;;11.81;59.33
68137;BME280;54939;50.826;9.030;2023-10-19T01:58:29;96835.31;;;11.81;59.13
68137;BME280;54939;50.826;9.030;2023-10-19T01:58:59;96838.81;;;11.82;59.33
68137;BME280;54939;50.826;9.030;2023-10-19T01:59:29;96842.28;;;11.82;58.99
68137;BME280;54939;50.826;9.030;2023-10-19T02:00:01;96830.78;;;11.82;59.05
68137;BME280;54939;50.826;9.030;2023-10-19T02:00:41;96825.66;;;11.80;59.29
68137;BME280;54939;50.826;9.030;2023-10-19T02:01:14;96836.13;;;11.82;59.36
68137;BME280;54939;50.826;9.030;2023-10-19T02:01:45;96841.47;;;11.82;59.35
68137;BME280;54939;50.826;9.030;2023-10-19T02:02:15;96834.50;;;11.81;59.40
68137;BME280;54939;50.826;9.030;2023-10-19T02:02:46;96837.16;;;11.81;59.43
68137;BME280;54939;50.826;9.030;2023-10-19T02:03:17;96835.31;;;11.81;59.06
68137;BME280;54939;50.826;9.030;2023-10-19T02:03:48;96833.66;;;11.80;59.09
68137;BME280;54939;50.826;9.030;2023-10-19T02:04:26;96832.84;;;11.80;59.37
68137;BME280;54939;50.826;9.030;2023-10-19T02:04:56;96828.31;;;11.80;59.22
68137;BME280;54939;50.826;9.030;2023-10-19T02:05:29;96833.66;;;11.80;59.29
68137;BME280;54939;50.826;9.030;2023-10-19T02:06:09;96828.31;;;11.80;59.09
68137;BME280;54939;50.826;9.030;2023-10-19T02:06:56;96828.91;;;11.82;59.19
68137;BME280;54939;50.826;9.030;2023-10-19T02:07:30;96836.13;;;11.82;59.40
68137;BME280;54939;50.826;9.030;2023-10-19T02:08:00;96826.47;;;11.81;59.35
68137;BME280;54939;50.826;9.030;2023-10-19T02:08:30;96825.03;;;11.78;59.35
68137;BME280;54939;50.826;9.030;2023-10-19T02:09:30;96827.50;;;11.80;58.92
68137;BME280;54939;50.826;9.030;2023-10-19T02:10:02;96828.31;;;11.80;59.09
68137;BME280;54939;50.826;9.030;2023-10-19T02:10:36;96825.84;;;11.79;59.26
68137;BME280;54939;50.826;9.030;2023-10-19T02:11:11;96826.66;;;11.79;59.17
68137;BME280;54939;50.826;9.030;2023-10-19T02:11:48;96821.31;;;11.79;59.20
68137;BME280;54939;50.826;9.030;2023-10-19T02:12:18;96822.97;;;11.80;59.35
68137;BME280;54939;50.826;9.030;2023-10-19T02:12:50;96825.66;;;11.80;59.42
68137;BME280;54939;50.826;9.030;2023-10-19T02:13:25;96814.94;;;11.80;59.22
68137;BME280;54939;50.826;9.030;2023-10-19T02:13:56;96812.28;;;11.80;59.28
68137;BME280;54939;50.826;9.030;2023-10-19T02:14:29;96818.44;;;11.81;59.27
68137;BME280;54939;50.826;9.030;2023-10-19T02:15:00;96813.09;;;11.81;59.56
68137;BME280;54939;50.826;9.030;2023-10-19T02:15:30;96821.31;;;11.79;59.21
68137;BME280;54939;50.826;9.030;2023-10-19T02:16:00;96816.81;;;11.80;59.52
68137;BME280;54939;50.826;9.030;2023-10-19T02:16:30;96816.81;;;11.80;59.21
68137;BME280;54939;50.826;9.030;2023-10-19T02:17:02;96812.47;;;11.79;59.42
68137;BME280;54939;50.826;9.030;2023-10-19T02:17:34;96816.81;;;11.80;59.42
68137;BME280;54939;50.826;9.030;2023-10-19T02:18:04;96811.44;;;11.80;59.15
68137;BME280;54939;50.826;9.030;2023-10-19T02:18:34;96813.09;;;11.81;59.08
68137;BME280;54939;50.826;9.030;2023-10-19T02:19:05;96807.75;;;11.81;58.92
68137;BME280;54939;50.826;9.030;2023-10-19T02:19:35;96801.59;;;11.80;59.12
68137;BME280;54939;50.826;9.030;2023-10-19T02:20:05;96800.56;;;11.81;59.36
68137;BME280;54939;50.826;9.030;2023-10-19T02:20:43;96798.91;;;11.80;59.31
68137;BME280;54939;50.826;9.030;2023-10-19T02:21:18;96801.59;;;11.80;59.41
68137;BME280;54939;50.826;9.030;2023-10-19T02:22:03;96799.75;;;11.81;59.16
68137;BME280;54939;50.826;9.030;2023-10-19T02:22:34;96802.41;;;11.81;58.83
68137;BME280;54939;50.826;9.030;2023-10-19T02:23:05;96790.91;;;11.80;59.30
68137;BME280;54939;50.826;9.030;2023-10-19T02:23:36;96795.41;;;11.80;59.29
68137;BME280;54939;50.826;9.030;2023-10-19T02:24:10;96800.75;;;11.80;59.42
68137;BME280;54939;50.826;9.030;2023-10-19T02:24:44;96789.03;;;11.81;59.29
68137;BME280;54939;50.826;9.030;2023-10-19T02:25:14;96785.53;;;11.80;59.07
68137;BME280;54939;50.826;9.030;2023-10-19T02:25:44;96787.19;;;11.81;59.30
68137;BME280;54939;50.826;9.030;2023-10-19T02:26:14;96787.19;;;11.81;59.02
68137;BME280;54939;50.826;9.030;2023-10-19T02:26:46;96783.69;;;11.81;59.17
68137;BME280;54939;50.826;9.030;2023-10-19T02:27:16;96788.22;;;11.80;59.41
68137;BME280;54939;50.826;9.030;2023-10-19T02:27:47;96786.38;;;11.81;59.06
68137;BME280;54939;50.826;9.030;2023-10-19T02:28:17;96785.53;;;11.80;59.04
68137;BME280;54939;50.826;9.030;2023-10-19T02:28:48;96789.03;;;11.81;59.33
68137;BME280;54939;50.826;9.030;2023-10-19T02:29:22;96782.88;;;11.80;59.58
68137;BME280;54939;50.826;9.030;2023-10-19T02:29:52;96782.66;;;11.82;59.40
68137;BME280;54939;50.826;9.030;2023-10-19T02:30:22;96784.53;;;11.81;59.56
68137;BME280;54939;50.826;9.030;2023-10-19T02:30:54;96790.69;;;11.82;59.31
68137;BME280;54939;50.826;9.030;2023-10-19T02:31:25;96786.38;;;11.81;59.45
68137;BME280;54939;50.826;9.030;2023-10-19T02:31:55;96786.38;;;11.81;59.06
68137;BME280;54939;50.826;9.030;2023-10-19T02:32:26;96785.53;;;11.80;59.52
68137;BME280;54939;50.826;9.030;2023-10-19T02:32:56;96789.03;;;11.81;59.12
68137;BME280;54939;50.826;9.030;2023-10-19T02:33:26;96790.91;;;11.80;59.17
68137;BME280;54939;50.826;9.030;2023-10-19T02:33:59;96785.53;;;11.80;59.27
68137;BME280;54939;50.826;9.030;2023-10-19T02:34:30;96789.25;;;11.79;59.56
68137;BME280;54939;50.826;9.030;2023-10-19T02:35:00;96797.06;;;11.81;59.36
68137;BME280;54939;50.826;9.030;2023-10-19T02:35:31;96792.53;;;11.81;59.32
68137;BME280;54939;50.826;9.030;2023-10-19T02:36:01;96798.72;;;11.82;59.26
68137;BME280;54939;50.826;9.030;2023-10-19T02:36:33;96800.56;;;11.81;59.29
68137;BME280;54939;50.826;9.030;2023-10-19T02:37:04;96792.53;;;11.81;59.52
68137;BME280;54939;50.826;9.030;2023-10-19T02:37:34;96790.06;;;11.80;59.37
68137;BME280;54939;50.826;9.030;2023-10-19T02:38:04;96800.75;;;11.80;59.34
68137;BME280;54939;50.826;9.030;2023-10-19T02:38:34;96794.59;;;11.79;59.28
68137;BME280;54939;50.826;9.030;2023-10-19T02:39:06;96798.09;;;11.80;59.65
68137;BME280;54939;50.826;9.030;2023-10-19T02:39:39;96790.06;;;11.80;59.06
68137;BME280;54939;50.826;9.030;2023-10-19T02:40:10;96795.41;;;11.80;58.96
68137;BME280;54939;50.826;9.030;2023-10-19T02:40:42;96791.72;;;11.81;59.24
68137;BME280;54939;50.826;9.030;2023-10-19T02:41:12;96801.59;;;11.80;58.97
68137;BME280;54939;50.826;9.030;2023-10-19T02:41:43;96802.41;;;11.81;59.26
68137;BME280;54939;50.826;9.030;2023-10-19T02:42:14;96790.06;;;11.80;59.22
68137;BME280;54939;50.826;9.030;2023-10-19T02:42:44;96795.22;;;11.81;59.14
68137;BME280;54939;50.826;9.030;2023-10-19T02:43:16;96800.56;;;11.81;59.13
68137;BME280;54939;50.826;9.030;2023-10-19T02:43:47;96801.38;;;11.82;59.34
68137;BME280;54939;50.826;9.030;2023-10-19T02:44:21;96793.38;;;11.82;59.35
68137;BME280;54939;50.826;9.030;2023-10-19T02:44:55;96797.06;;;11.81;59.27
68137;BME280;54939;50.826;9.030;2023-10-19T02:45:25;96799.75;;;11.81;59.36
68137;BME280;54939;50.826;9.030;2023-10-19T02:46:00;96792.53;;;11.81;59.13
68137;BME280;54939;50.826;9.030;2023-10-19T02:46:32;96797.06;;;11.81;59.39
68137;BME280;54939;50.826;9.030;2023-10-19T02:47:02;96798.72;;;11.82;59.49
68137;BME280;54939;50.826;9.030;2023-10-19T02:47:38;96797.06;;;11.81;59.27
68137;BME280;54939;50.826;9.030;2023-10-19T02:48:11;96802.41;;;11.81;59.23
68137;BME280;54939;50.826;9.030;2023-10-19T02:48:43;96788.22;;;11.80;59.44
68137;BME280;54939;50.826;9.030;2023-10-19T02:49:17;96789.03;;;11.81;59.66
68137;BME280;54939;50.826;9.030;2023-10-19T02:49:50;96789.03;;;11.81;59.24
68137;BME280;54939;50.826;9.030;2023-10-19T02:50:25;96785.53;;;11.80;59.07
68137;BME280;54939;50.826;9.030;2023-10-19T02:50:56;96790.91;;;11.80;59.15
68137;BME280;54939;50.826;9.030;2023-10-19T02:51:35;96789.88;;;11.81;59.20
68137;BME280;54939;50.826;9.030;2023-10-19T02:52:07;96788.81;;;11.82;59.40
68137;BME280;54939;50.826;9.030;2023-10-19T02:52:37;96779.75;;;11.83;59.18
68137;BME280;54939;50.826;9.030;2023-10-19T02:53:07;96786.13;;;11.82;59.44
68137;BME280;54939;50.826;9.030;2023-10-19T02:53:38;96785.34;;;11.82;58.95
68137;BME280;54939;50.826;9.030;2023-10-19T02:54:08;96785.34;;;11.82;59.18
68137;BME280;54939;50.826;9.030;2023-10-19T02:54:38;96788.81;;;11.82;59.31
68137;BME280;54939;50.826;9.030;2023-10-19T02:55:09;96780.00;;;11.82;59.45
68137;BME280;54939;50.826;9.030;2023-10-19T02:55:40;96786.13;;;11.82;59.28
68137;BME280;54939;50.826;9.030;2023-10-19T02:56:14;96780.19;;;11.80;59.15
68137;BME280;54939;50.826;9.030;2023-10-19T02:56:49;96787.19;;;11.81;59.25
68137;BME280;54939;50.826;9.030;2023-10-19T02:57:21;96781.84;;;11.81;59.11
68137;BME280;54939;50.826;9.030;2023-10-19T02:57:52;96780.19;;;11.80;59.20